createdAt,value
2019-03-12T00:01:01.992Z,98240.09
2019-03-12T00:03:32.008Z,98240.09
2019-03-12T00:06:01.818Z,98241.63
2019-03-12T00:08:31.420Z,98242.70
2019-03-12T00:11:01.204Z,98243.54
2019-03-12T00:13:30.836Z,98248.52
2019-03-12T00:16:00.480Z,98253.66
2019-03-12T00:18:30.507Z,98244.62
2019-03-12T00:21:00.134Z,98252.87
2019-03-12T00:23:30.374Z,98246.74
2019-03-12T00:26:00.089Z,98252.17
2019-03-12T00:28:31.304Z,98255.47
2019-03-12T00:31:01.264Z,98258.77
2019-03-12T00:33:31.365Z,98254.55
2019-03-12T00:36:01.013Z,98255.94
2019-03-12T00:38:30.557Z,98255.94
2019-03-12T00:41:00.140Z,98262.83
2019-03-12T00:43:30.000Z,98275.89
2019-03-12T00:45:59.759Z,98275.89
2019-03-12T00:48:29.991Z,98270.41
2019-03-12T00:51:02.158Z,98267.48
2019-03-12T00:53:32.004Z,98267.48
2019-03-12T00:56:01.662Z,98274.20
2019-03-12T00:58:31.274Z,98266.62
2019-03-12T01:01:01.065Z,98262.20
2019-03-12T01:03:30.848Z,98264.32
2019-03-12T01:06:00.545Z,98260.16
2019-03-12T01:08:30.401Z,98258.95
2019-03-12T01:11:00.056Z,98258.95
2019-03-12T01:13:30.324Z,98261.59
2019-03-12T01:16:01.121Z,98248.19
2019-03-12T01:18:30.691Z,98248.19
2019-03-12T01:21:00.363Z,98249.53
2019-03-12T01:23:30.643Z,98244.99
2019-03-12T01:26:00.771Z,98236.52
2019-03-12T01:28:30.275Z,98238.64
2019-03-12T01:30:59.883Z,98246.94
2019-03-12T01:33:30.008Z,98236.84
2019-03-12T01:35:59.638Z,98236.84
2019-03-12T01:38:29.321Z,98234.25
2019-03-12T01:40:59.062Z,98230.01
2019-03-12T01:43:28.917Z,98227.13
2019-03-12T01:45:58.699Z,98226.62
2019-03-12T01:48:28.826Z,98223.38
2019-03-12T01:50:58.573Z,98215.30
2019-03-12T01:53:28.229Z,98207.75
2019-03-12T01:55:57.743Z,98203.64
2019-03-12T01:58:27.583Z,98199.28
2019-03-12T02:00:57.715Z,98193.34
2019-03-12T02:03:27.294Z,98193.34
2019-03-12T02:05:56.882Z,98193.05
2019-03-12T02:08:26.798Z,98190.20
2019-03-12T02:10:56.355Z,98193.64
2019-03-12T02:13:26.006Z,98193.64
2019-03-12T02:15:56.076Z,98185.14
2019-03-12T02:18:25.779Z,98185.14
2019-03-12T02:20:55.481Z,98178.63
2019-03-12T02:23:25.136Z,98181.93
2019-03-12T02:25:54.759Z,98183.71
2019-03-12T02:28:24.566Z,98179.69
2019-03-12T02:30:54.398Z,98173.61
2019-03-12T02:33:24.216Z,98167.22
2019-03-12T02:35:53.925Z,98163.06
2019-03-12T02:38:24.054Z,98163.06
2019-03-12T02:40:53.719Z,98163.43
2019-03-12T02:43:23.482Z,98157.08
2019-03-12T02:45:53.279Z,98159.72
2019-03-12T02:48:23.078Z,98159.72
2019-03-12T02:50:52.818Z,98156.93
2019-03-12T02:53:22.415Z,98147.86
2019-03-12T02:55:52.091Z,98142.77
2019-03-12T02:58:22.558Z,98144.09
2019-03-12T03:00:52.304Z,98136.48
2019-03-12T03:03:22.365Z,98130.18
2019-03-12T03:06:11.065Z,98130.73
2019-03-12T03:08:40.758Z,98134.66
2019-03-12T03:11:10.644Z,98133.56
2019-03-12T03:13:40.613Z,98135.67
2019-03-12T03:16:10.823Z,98135.67
2019-03-12T03:18:40.463Z,98133.03
2019-03-12T03:21:09.985Z,98134.30
2019-03-12T03:23:39.750Z,98134.30
2019-03-12T03:26:09.779Z,98137.16
2019-03-12T03:28:39.359Z,98136.99
2019-03-12T03:31:10.825Z,98138.61
2019-03-12T03:33:40.557Z,98128.16
2019-03-12T03:36:11.265Z,98128.16
2019-03-12T03:38:41.384Z,98129.89
2019-03-12T03:41:14.269Z,98127.55
2019-03-12T03:43:44.219Z,98127.55
2019-03-12T03:46:14.525Z,98129.99
2019-03-12T03:48:44.305Z,98134.05
2019-03-12T03:51:14.935Z,98125.87
2019-03-12T03:53:44.897Z,98131.40
2019-03-12T03:56:14.676Z,98130.61
2019-03-12T03:58:44.311Z,98122.28
2019-03-12T04:01:14.220Z,98121.27
2019-03-12T04:03:44.246Z,98118.28
2019-03-12T04:06:14.011Z,98111.12
2019-03-12T04:08:43.923Z,98103.20
2019-03-12T04:11:13.845Z,98108.48
2019-03-12T04:13:43.949Z,98108.48
2019-03-12T04:16:13.719Z,98097.41
2019-03-12T04:18:43.402Z,98093.55
2019-03-12T04:21:13.002Z,98086.09
2019-03-12T04:23:43.005Z,98076.54
2019-03-12T04:26:12.673Z,98070.61
2019-03-12T04:28:42.151Z,98074.22
2019-03-12T04:31:11.963Z,98074.22
2019-03-12T04:34:35.330Z,98071.20
2019-03-12T04:37:06.710Z,98064.12
2019-03-12T04:39:36.535Z,98065.09
2019-03-12T04:42:06.246Z,98068.67
2019-03-12T04:44:39.124Z,98068.67
2019-03-12T04:47:13.169Z,98065.41
2019-03-12T04:49:43.097Z,98057.23
2019-03-12T04:52:14.112Z,98050.52
2019-03-12T04:54:43.701Z,98058.70
2019-03-12T04:57:13.116Z,98046.94
2019-03-12T04:59:42.939Z,98037.45
2019-03-12T05:02:12.718Z,98037.45
2019-03-12T05:04:42.514Z,98036.84
2019-03-12T05:07:12.055Z,98042.13
2019-03-12T05:09:42.148Z,98039.45
2019-03-12T05:12:12.568Z,98029.04
2019-03-12T05:14:44.433Z,98029.04
2019-03-12T05:17:24.360Z,98027.30
2019-03-12T05:19:53.829Z,98033.83
2019-03-12T05:22:25.022Z,98026.37
2019-03-12T05:24:54.578Z,98026.37
2019-03-12T05:27:25.096Z,98024.73
2019-03-12T05:29:54.860Z,98021.70
2019-03-12T05:32:27.455Z,98016.77
2019-03-12T05:35:01.514Z,98010.22
2019-03-12T05:37:31.000Z,98003.16
2019-03-12T05:40:01.630Z,98003.16
2019-03-12T05:42:31.338Z,98008.25
2019-03-12T05:45:01.396Z,98005.80
2019-03-12T05:47:31.172Z,98005.80
2019-03-12T05:50:00.789Z,98004.31
2019-03-12T05:52:30.964Z,98004.31
2019-03-12T05:55:00.755Z,97996.49
2019-03-12T05:57:30.319Z,97994.20
2019-03-12T05:59:59.798Z,97994.20
2019-03-12T06:02:29.416Z,97983.59
2019-03-12T06:04:59.027Z,97983.59
2019-03-12T06:07:29.297Z,97966.11
2019-03-12T06:09:59.193Z,97966.11
2019-03-12T06:12:29.370Z,97954.70
2019-03-12T06:14:58.908Z,97954.70
2019-03-12T06:17:29.080Z,97957.00
2019-03-12T06:19:58.455Z,97952.36
2019-03-12T06:22:28.300Z,97951.66
2019-03-12T06:24:58.353Z,97951.33
2019-03-12T06:27:27.827Z,97951.33
2019-03-12T06:29:57.691Z,97949.53
2019-03-12T06:32:37.452Z,97949.59
2019-03-12T06:35:15.034Z,97936.73
2019-03-12T06:38:09.112Z,97936.02
2019-03-12T06:40:43.756Z,97928.73
2019-03-12T06:43:31.098Z,97930.41
2019-03-12T06:46:22.888Z,97923.32
2019-03-12T06:49:09.911Z,97917.84
2019-03-12T06:51:56.654Z,97914.11
2019-03-12T06:54:57.239Z,97914.11
2019-03-12T06:57:53.963Z,97904.89
2019-03-12T07:00:43.614Z,97904.89
2019-03-12T07:03:27.807Z,97894.75
2019-03-12T07:06:17.055Z,97894.12
2019-03-12T07:09:08.711Z,97894.12
2019-03-12T07:11:51.716Z,97887.80
2019-03-12T07:14:39.024Z,97873.05
2019-03-12T07:17:15.018Z,97854.31
2019-03-12T07:20:06.442Z,97854.31
2019-03-12T07:22:47.335Z,97840.02
2019-03-12T07:25:35.444Z,97840.02
2019-03-12T07:28:23.308Z,97841.42
2019-03-12T07:31:08.054Z,97841.42
2019-03-12T07:33:46.627Z,97830.23
2019-03-12T07:36:27.032Z,97837.91
2019-03-12T07:39:04.636Z,97825.94
2019-03-12T07:41:39.292Z,97825.94
2019-03-12T07:44:26.249Z,97818.64
2019-03-12T07:47:17.568Z,97816.11
2019-03-12T07:50:11.937Z,97801.91
2019-03-12T07:53:00.702Z,97801.80
2019-03-12T07:55:45.180Z,97786.75
2019-03-12T07:58:50.786Z,97786.75
2019-03-12T08:01:39.383Z,97787.29
2019-03-12T08:04:43.486Z,97787.29
2019-03-12T08:07:34.432Z,97776.04
2019-03-12T08:10:15.932Z,97773.39
2019-03-12T08:13:02.747Z,97773.39
2019-03-12T08:15:44.284Z,97758.00
2019-03-12T08:18:35.502Z,97768.48
2019-03-12T08:21:22.971Z,97756.11
2019-03-12T08:24:06.240Z,97749.11
2019-03-12T08:26:54.949Z,97747.13
2019-03-12T08:29:46.511Z,97741.62
2019-03-12T08:32:47.192Z,97733.36
2019-03-12T08:35:50.815Z,97724.13
2019-03-12T08:38:46.526Z,97724.13
2019-03-12T08:41:38.249Z,97716.59
2019-03-12T08:44:16.348Z,97708.09
2019-03-12T08:47:05.259Z,97704.36
2019-03-12T08:49:44.910Z,97704.36
2019-03-12T08:52:40.103Z,97699.20
2019-03-12T08:55:28.863Z,97686.97
2019-03-12T08:58:08.498Z,97686.97
2019-03-12T09:01:07.389Z,97680.64
2019-03-12T09:04:03.417Z,97675.08
2019-03-12T09:06:40.069Z,97675.08
2019-03-12T09:09:28.793Z,97665.23
2019-03-12T09:12:26.105Z,97645.89
2019-03-12T09:15:14.999Z,97648.33
2019-03-12T09:18:04.122Z,97648.33
2019-03-12T09:20:44.307Z,97630.25
2019-03-12T09:23:31.556Z,97618.31
2019-03-12T09:26:11.393Z,97618.31
2019-03-12T09:29:12.283Z,97614.49
2019-03-12T09:31:59.707Z,97591.31
2019-03-12T09:34:46.218Z,97589.32
2019-03-12T09:37:36.600Z,97576.12
2019-03-12T09:40:23.744Z,97562.36
2019-03-12T09:43:14.118Z,97562.36
2019-03-12T09:45:54.005Z,97550.73
2019-03-12T09:48:41.102Z,97547.50
2019-03-12T09:51:21.130Z,97531.81
2019-03-12T09:54:26.579Z,97520.93
2019-03-12T09:57:15.054Z,97520.93
2019-03-12T10:00:15.609Z,97509.16
2019-03-12T10:02:46.335Z,97501.75
2019-03-12T10:05:23.700Z,97501.75
2019-03-12T10:08:08.611Z,97476.55
2019-03-12T10:10:57.196Z,97470.98
2019-03-12T10:13:48.023Z,97470.98
2019-03-12T10:16:35.377Z,97463.20
2019-03-12T10:19:20.329Z,97454.73
2019-03-12T10:22:13.905Z,97454.73
2019-03-12T10:25:01.167Z,97430.51
2019-03-12T10:27:49.876Z,97430.51
2019-03-12T10:30:47.154Z,97433.33
2019-03-12T10:33:41.532Z,97431.63
2019-03-12T10:36:20.985Z,97426.96
2019-03-12T10:39:42.316Z,97417.63
2019-03-12T10:42:21.891Z,97414.98
2019-03-12T10:45:00.987Z,97414.80
2019-03-12T10:47:31.099Z,97404.33
2019-03-12T10:50:00.988Z,97398.72
2019-03-12T10:52:31.022Z,97387.11
2019-03-12T10:55:12.413Z,97370.14
2019-03-12T10:57:32.091Z,97370.14
2019-03-12T11:00:02.020Z,97358.14
2019-03-12T11:02:31.668Z,97355.92
2019-03-12T11:05:01.196Z,97353.04
2019-03-12T11:07:30.956Z,97336.91
2019-03-12T11:10:00.513Z,97336.91
2019-03-12T11:12:30.196Z,97327.35
2019-03-12T11:14:59.815Z,97333.09
2019-03-12T11:17:29.254Z,97308.75
2019-03-12T11:19:59.666Z,97308.75
2019-03-12T11:22:29.754Z,97310.06
2019-03-12T11:24:59.220Z,97291.67
2019-03-12T11:27:28.876Z,97291.67
2019-03-12T11:29:59.142Z,97290.81
2019-03-12T11:32:28.577Z,97283.16
2019-03-12T11:34:58.615Z,97282.46
2019-03-12T11:37:28.154Z,97274.34
2019-03-12T11:39:57.977Z,97266.55
2019-03-12T11:42:30.571Z,97257.02
2019-03-12T11:45:13.616Z,97245.00
2019-03-12T11:47:35.034Z,97259.29
2019-03-12T11:50:06.341Z,97259.29
2019-03-12T11:52:36.416Z,97242.95
2019-03-12T11:55:06.851Z,97229.00
2019-03-12T11:57:36.791Z,97231.29
2019-03-12T12:00:07.944Z,97223.87
2019-03-12T12:02:37.941Z,97210.34
2019-03-12T12:05:08.414Z,97209.84
2019-03-12T12:07:39.673Z,97209.84
2019-03-12T12:10:12.231Z,97179.16
2019-03-12T12:12:48.233Z,97179.16
2019-03-12T12:15:19.095Z,97172.13
2019-03-12T12:17:52.768Z,97178.12
2019-03-12T12:20:29.510Z,97163.73
2019-03-12T12:22:55.522Z,97168.30
2019-03-12T12:25:25.303Z,97141.70
2019-03-12T12:27:54.865Z,97125.84
2019-03-12T12:30:25.112Z,97125.84
2019-03-12T12:32:55.069Z,97127.22
2019-03-12T12:35:24.583Z,97122.09
2019-03-12T12:37:54.231Z,97099.08
2019-03-12T12:40:24.739Z,97100.41
2019-03-12T12:42:54.341Z,97100.41
2019-03-12T12:45:24.935Z,97087.31
2019-03-12T12:47:54.543Z,97062.84
2019-03-12T12:50:24.888Z,97083.30
2019-03-12T12:52:57.351Z,97065.80
2019-03-12T12:55:26.864Z,97043.07
2019-03-12T12:57:56.860Z,97043.61
2019-03-12T13:00:26.574Z,97039.23
2019-03-12T13:02:56.318Z,97039.23
2019-03-12T13:05:26.122Z,97027.59
2019-03-12T13:07:55.589Z,97032.03
2019-03-12T13:10:26.147Z,97011.34
2019-03-12T13:12:56.050Z,97011.34
2019-03-12T13:15:26.605Z,97006.79
2019-03-12T13:17:56.711Z,96999.22
2019-03-12T13:20:30.195Z,96990.19
2019-03-12T13:22:59.794Z,96982.46
2019-03-12T13:25:29.256Z,96978.66
2019-03-12T13:27:58.722Z,96960.93
2019-03-12T13:30:28.539Z,96954.45
2019-03-12T13:32:59.077Z,96934.63
2019-03-12T13:35:29.017Z,96912.70
2019-03-12T13:37:59.211Z,96916.61
2019-03-12T13:40:30.241Z,96920.81
2019-03-12T13:42:59.904Z,96908.28
2019-03-12T13:45:29.990Z,96908.28
2019-03-12T13:47:59.460Z,96892.25
2019-03-12T13:50:29.213Z,96892.25
2019-03-12T13:52:59.100Z,96865.56
2019-03-12T13:55:28.938Z,96864.58
2019-03-12T13:58:02.074Z,96859.97
2019-03-12T14:00:33.486Z,96839.14
2019-03-12T14:03:04.863Z,96851.64
2019-03-12T14:05:44.937Z,96835.89
2019-03-12T14:08:14.741Z,96835.89
2019-03-12T14:10:44.455Z,96821.14
2019-03-12T14:13:15.346Z,96821.14
2019-03-12T14:15:47.450Z,96807.64
2019-03-12T14:18:17.062Z,96793.52
2019-03-12T14:20:52.610Z,96791.95
2019-03-12T14:23:36.571Z,96788.20
2019-03-12T14:26:06.227Z,96757.31
2019-03-12T14:28:35.597Z,96757.31
2019-03-12T14:31:05.377Z,96768.91
2019-03-12T14:33:35.384Z,96763.94
2019-03-12T14:36:04.914Z,96755.03
2019-03-12T14:38:34.329Z,96755.03
2019-03-12T14:41:06.386Z,96736.73
2019-03-12T14:43:35.732Z,96736.82
2019-03-12T14:46:05.846Z,96736.82
2019-03-12T14:48:52.710Z,96714.09
2019-03-12T14:51:51.674Z,96714.09
2019-03-12T14:54:21.358Z,96696.09
2019-03-12T14:56:51.502Z,96680.33
2019-03-12T14:59:21.144Z,96680.33
2019-03-12T15:01:51.282Z,96673.58
2019-03-12T15:04:20.903Z,96674.18
2019-03-12T15:06:50.725Z,96656.73
2019-03-12T15:09:20.131Z,96652.02
2019-03-12T15:11:49.543Z,96641.24
2019-03-12T15:14:19.330Z,96633.15
2019-03-12T15:16:51.719Z,96627.89
2019-03-12T15:19:25.752Z,96618.63
2019-03-12T15:21:57.880Z,96602.07
2019-03-12T15:24:28.018Z,96602.07
2019-03-12T15:26:57.649Z,96597.45
2019-03-12T15:29:31.140Z,96586.20
2019-03-12T15:32:04.503Z,96586.20
2019-03-12T15:37:12.799Z,96554.99
2019-03-12T15:39:46.377Z,96555.48
2019-03-12T15:42:16.114Z,96555.64
2019-03-12T15:44:45.577Z,96555.64
2019-03-12T15:47:18.379Z,96542.92
2019-03-12T15:49:50.206Z,96542.92
2019-03-12T15:52:20.049Z,96533.22
2019-03-12T15:54:49.481Z,96522.42
2019-03-12T15:57:19.160Z,96510.34
2019-03-12T15:59:48.966Z,96510.34
2019-03-12T16:02:18.934Z,96489.68
2019-03-12T16:04:48.930Z,96480.18
2019-03-12T16:07:18.308Z,96466.53
2019-03-12T16:09:48.051Z,96466.53
2019-03-12T16:12:18.032Z,96457.75
2019-03-12T16:14:47.726Z,96438.69
2019-03-12T16:17:17.591Z,96424.78
2019-03-12T16:19:47.179Z,96432.15
2019-03-12T16:22:16.795Z,96432.15
2019-03-12T16:24:47.097Z,96410.56
2019-03-12T16:27:17.077Z,96403.11
2019-03-12T16:29:47.109Z,96398.13
2019-03-12T16:32:16.980Z,96390.94
2019-03-12T16:34:46.435Z,96390.94
2019-03-12T16:37:24.306Z,96384.81
2019-03-12T16:39:54.141Z,96379.97
2019-03-12T16:42:34.559Z,96386.37
2019-03-12T16:44:55.098Z,96374.38
2019-03-12T16:47:25.701Z,96374.38
2019-03-12T16:49:59.973Z,96363.31
2019-03-12T16:52:29.292Z,96331.03
2019-03-12T16:54:58.740Z,96326.02
2019-03-12T16:57:28.849Z,96326.02
2019-03-12T16:59:59.102Z,96317.93
2019-03-12T17:02:31.087Z,96304.48
2019-03-12T17:05:03.899Z,96296.89
2019-03-12T17:07:36.334Z,96296.89
2019-03-12T17:10:07.127Z,96281.39
2019-03-12T17:12:40.881Z,96273.75
2019-03-12T17:15:11.807Z,96273.75
2019-03-12T17:17:41.523Z,96292.22
2019-03-12T17:20:12.174Z,96282.80
2019-03-12T17:22:44.488Z,96282.80
2019-03-12T17:25:14.289Z,96279.50
2019-03-12T17:27:46.866Z,96275.95
2019-03-12T17:30:17.819Z,96275.95
2019-03-12T17:32:48.151Z,96267.30
2019-03-12T17:35:20.286Z,96251.94
2019-03-12T17:37:53.396Z,96251.94
2019-03-12T17:40:30.425Z,96247.27
2019-03-12T17:43:01.679Z,96247.27
2019-03-12T17:45:32.620Z,96224.13
2019-03-12T17:48:02.763Z,96213.93
2019-03-12T17:50:34.239Z,96213.93
2019-03-12T17:53:09.168Z,96223.05
2019-03-12T17:55:39.683Z,96189.53
2019-03-12T17:58:09.194Z,96189.53
2019-03-12T18:00:42.225Z,96181.72
2019-03-12T18:03:17.991Z,96177.51
2019-03-12T18:05:47.139Z,96177.51
2019-03-12T18:08:17.364Z,96173.66
2019-03-12T18:10:50.343Z,96171.62
2019-03-12T18:13:20.617Z,96171.62
2019-03-12T18:15:50.183Z,96153.44
2019-03-12T18:18:19.611Z,96154.09
2019-03-12T18:20:55.093Z,96143.94
2019-03-12T18:23:25.689Z,96143.94
2019-03-12T18:25:56.078Z,96144.81
2019-03-12T18:28:30.503Z,96136.44
2019-03-12T18:31:00.247Z,96127.78
2019-03-12T18:33:30.063Z,96117.93
2019-03-12T18:36:08.835Z,96096.97
2019-03-12T18:38:38.340Z,96096.97
2019-03-12T18:41:15.203Z,96111.16
2019-03-12T18:43:45.236Z,96082.07
2019-03-12T18:46:15.190Z,96077.58
2019-03-12T18:48:47.670Z,96088.73
2019-03-12T18:51:17.385Z,96073.13
2019-03-12T18:53:47.099Z,96073.30
2019-03-12T18:56:16.755Z,96073.30
2019-03-12T18:58:48.447Z,96058.53
2019-03-12T19:01:21.224Z,96058.53
2019-03-12T19:03:50.654Z,96052.30
2019-03-12T19:06:23.604Z,96052.30
2019-03-12T19:08:53.445Z,96048.51
2019-03-12T19:11:23.194Z,96025.66
2019-03-12T19:13:53.309Z,96042.16
2019-03-12T19:16:24.962Z,96042.16
2019-03-12T19:19:00.698Z,96024.61
2019-03-12T19:21:30.578Z,96016.69
2019-03-12T19:24:03.208Z,96016.56
2019-03-12T19:26:35.669Z,96005.13
2019-03-12T19:29:07.943Z,96005.13
2019-03-12T19:32:07.695Z,96003.45
2019-03-12T19:34:38.120Z,96005.95
2019-03-12T19:37:16.990Z,96005.95
2019-03-12T19:39:47.102Z,96025.95
2019-03-12T19:42:16.978Z,96017.96
2019-03-12T19:44:47.696Z,96017.96
2019-03-12T19:47:20.293Z,96013.69
2019-03-12T19:49:49.913Z,96013.69
2019-03-12T19:52:23.095Z,96022.09
2019-03-12T19:54:52.768Z,96022.09
2019-03-12T19:57:22.294Z,96016.70
2019-03-12T19:59:51.882Z,96016.70
2019-03-12T20:02:21.456Z,95991.23
2019-03-12T20:04:51.132Z,95972.71
2019-03-12T20:07:20.613Z,95972.71
2019-03-12T20:09:56.633Z,95979.25
2019-03-12T20:13:12.369Z,95961.23
2019-03-12T20:16:22.104Z,95961.23
2019-03-12T20:19:20.992Z,95948.24
2019-03-12T20:22:22.717Z,95929.45
2019-03-12T20:25:35.996Z,95929.45
2019-03-12T20:28:31.126Z,95929.89
2019-03-12T20:31:43.258Z,95932.28
2019-03-12T20:35:12.131Z,95911.66
2019-03-12T20:38:19.175Z,95933.61
2019-03-12T20:41:38.664Z,95930.38
2019-03-12T20:44:58.721Z,95930.38
2019-03-12T20:48:14.225Z,95925.11
2019-03-12T20:51:31.491Z,95903.45
2019-03-12T20:54:47.371Z,95912.03
2019-03-12T20:58:06.353Z,95907.97
2019-03-12T21:01:21.485Z,95888.24
2019-03-12T21:04:38.084Z,95888.24
2019-03-12T21:07:47.784Z,95895.91
2019-03-12T21:11:01.837Z,95895.91
2019-03-12T21:14:11.285Z,95882.14
2019-03-12T21:17:21.844Z,95896.30
2019-03-12T21:20:42.276Z,95900.95
2019-03-12T21:23:22.366Z,95907.13
2019-03-12T21:26:15.126Z,95915.31
2019-03-12T21:29:35.062Z,95940.84
2019-03-12T21:32:05.190Z,95940.84
2019-03-12T21:34:37.157Z,95950.81
2019-03-12T21:37:06.964Z,95965.80
2019-03-12T21:39:36.725Z,95991.98
2019-03-12T21:42:07.002Z,95993.50
2019-03-12T21:44:38.091Z,96082.48
2019-03-12T21:47:08.148Z,96099.98
2019-03-12T21:49:39.641Z,96101.22
2019-03-12T21:52:09.592Z,96121.78
2019-03-12T21:54:39.733Z,96115.55
2019-03-12T21:57:09.478Z,96115.55
2019-03-12T21:59:41.768Z,96133.16
2019-03-12T22:02:11.730Z,96151.41
2019-03-12T22:04:41.185Z,96151.41
2019-03-12T22:07:11.288Z,96141.42
2019-03-12T22:09:40.897Z,96169.34
2019-03-12T22:12:12.094Z,96169.34
2019-03-12T22:14:41.707Z,96167.65
2019-03-12T22:17:12.392Z,96173.67
2019-03-12T22:19:41.959Z,96181.34
2019-03-12T22:22:36.542Z,96208.73
2019-03-12T22:25:08.498Z,96213.37
2019-03-12T22:27:38.312Z,96213.37
2019-03-12T22:30:12.018Z,96234.60
2019-03-12T22:32:42.108Z,96226.02
2019-03-12T22:35:12.104Z,96224.00
2019-03-12T22:37:41.713Z,96229.27
2019-03-12T22:40:12.121Z,96242.94
2019-03-12T22:42:43.228Z,96236.20
2019-03-12T22:45:12.812Z,96258.01
2019-03-12T22:47:42.815Z,96258.01
2019-03-12T22:50:12.599Z,96266.41
2019-03-12T22:52:43.033Z,96258.58
2019-03-12T22:55:12.849Z,96265.44
2019-03-12T22:57:44.702Z,96265.44
2019-03-12T23:00:15.563Z,96275.67
2019-03-12T23:02:44.971Z,96283.13
2019-03-12T23:05:14.576Z,96283.13
2019-03-12T23:07:45.086Z,96282.92
2019-03-12T23:10:14.899Z,96280.13
2019-03-12T23:12:44.523Z,96293.58
2019-03-12T23:15:14.394Z,96293.58
2019-03-12T23:17:46.593Z,96311.33
2019-03-12T23:20:16.388Z,96309.48
2019-03-12T23:22:45.952Z,96314.53
2019-03-12T23:25:16.316Z,96321.53
2019-03-12T23:27:45.900Z,96324.07
2019-03-12T23:30:15.934Z,96324.91
2019-03-12T23:32:46.383Z,96324.91
2019-03-12T23:35:16.134Z,96330.47
2019-03-12T23:37:46.290Z,96330.47
2019-03-12T23:40:16.043Z,96334.09
2019-03-12T23:42:47.164Z,96345.03
2019-03-12T23:45:18.218Z,96345.03
2019-03-12T23:47:50.122Z,96351.41
2019-03-12T23:50:19.586Z,96358.50
2019-03-12T23:52:49.664Z,96358.50
2019-03-12T23:55:19.942Z,96367.77
2019-03-12T23:57:49.506Z,96367.77
